Terminal Aerodrome Forecast
Issued by NWS

Home | Current Version | Previous Version | Graphics & Text | Print | Product List | Glossary On
Versions: 1 2 3 4 5 6 7 8 9 10 11 12 13 14 15 16
000
FTUS43 KICT 230520
TAFSLN
TAF
KSLN 230520Z 2306/2406 31006KT P6SM SKC
     FM230700 VRB04KT P6SM SKC
     FM231600 20008KT P6SM SKC
     FM232100 17013G19KT P6SM SCT250=

USA.gov is the U.S. government's official web portal to all federal, state and local government web resources and services.